Monday, January 22, 2018, 1:58 PM GMT
Back to Local

CYUL, Montreal / Pierre Elliot Trudeau International Airport, Que

Location: , , Canada Lat: 45.467
Local Time: 1:58 PM GMT (13:58 GMT) Lon: -73.75
Time Zone: GMT Elev: 101 ft

Show me the last for .
Show Decoded

2018-01-22 13:00 METAR CYUL 221300Z 04012KT 12SM -SN DRSN FEW030 OVC065 M08/M13 A3034 RMK SC1SC7
                 SLP276 =
2018-01-22 12:00 METAR CYUL 221200Z 03015KT 5SM -SN DRSN BKN025 OVC030 M08/M13 A3031 RMK SC6SC2
                 SLP269 =
2018-01-22 11:00 METAR CYUL 221100Z 03019KT 15SM -SN DRSN BKN024 OVC065 M08/M13 A3029 RMK SC6SC2
                 SLP262 =
2018-01-22 10:00 METAR CYUL 221000Z 03012KT 7SM -SN DRSN OVC055 M08/M12 A3028 RMK SC8 SLP256 =
2018-01-22 09:00 METAR CYUL 220900Z 04014KT 7SM -SN DRSN FEW055 OVC070 M08/M11 A3027 RMK SC2AC6
                 SLP254 =
2018-01-22 08:00 METAR CYUL 220800Z 04016KT 4SM -SN DRSN BKN043 OVC110 M08/M11 A3027 RMK SC6AC2
                 SLP254 =
2018-01-22 07:00 METAR CYUL 220700Z 03012G19KT 3SM -SN DRSN FEW045 OVC120 M07/M11 A3026 RMK
                 SC1AC7 SLP251 =
2018-01-22 06:00 METAR CYUL 220600Z 03013KT 1 3/4SM -SN DRSN OVC025 M07/M09 A3025 RMK NS8 SLP248
                 =
2018-01-22 05:51 METAR CYUL 220551Z 04014KT 2SM -SN DRSN OVC025 M07/M10 A3025 RMK NS8 SLP246 =
2018-01-22 05:00 METAR CYUL 220500Z 04012KT 4SM -SN OVC035 M06/M09 A3024 RMK NS8 SLP244 =
2018-01-22 04:00 METAR CYUL 220400Z 05011KT 6SM -SN OVC070 M05/M10 A3024 RMK AS8 SLP243 =
2018-01-22 03:00 METAR CYUL 220300Z 05012KT 8SM -SN OVC030 M05/M10 A3023 RMK SC8 SLP239 =
2018-01-22 02:00 METAR CYUL 220200Z 05010KT 15SM -SN OVC030 M04/M09 A3021 RMK SC8 SLP235 =
2018-01-22 01:00 METAR CYUL 220100Z 06010KT 15SM -SN OVC030 M03/M08 A3021 RMK SC8 SLP233 =
2018-01-22 00:00 METAR CYUL 220000Z 05009KT 15SM -SN OVC034 M03/M07 A3020 RMK SC8 SLP230 =
2018-01-21 23:00 METAR CYUL 212300Z 08005KT 15SM BKN028 OVC040 M02/M07 A3019 RMK SC7SC1 SLP226 =
2018-01-21 22:00 METAR CYUL 212200Z 10005KT 15SM BKN027 OVC045 M02/M07 A3018 RMK SC7SC1 SLP222 =
2018-01-21 21:00 METAR CYUL 212100Z 06003KT 15SM BKN027 OVC050 M01/M07 A3016 RMK SC7SC1 SLP218 =
2018-01-21 20:00 METAR CYUL 212000Z 02006KT 15SM BKN028 OVC055 M01/M07 A3016 RMK SC7SC1 SLP216 =
2018-01-21 19:00 METAR CYUL 211900Z 12004KT 020V140 15SM OVC030 M01/M08 A3014 RMK SC8 SLP210 =
2018-01-21 18:00 METAR CYUL 211800Z 02004KT 15SM OVC030 M01/M09 A3014 RMK SC8 SLP209 =
2018-01-21 17:00 METAR CYUL 211700Z 03005KT 15SM OVC033 M02/M08 A3014 RMK SC8 SLP211 =
2018-01-21 16:00 METAR CYUL 211600Z 03004KT 15SM BKN033 OVC045 M02/M08 A3016 RMK SC7SC1 SLP216 =
2018-01-21 15:28 METAR CYUL 211528Z 02005KT 15SM BKN034 OVC045 M02/M08 A3017 RMK SC7SC1 SLP219 =
2018-01-21 15:00 METAR CYUL 211500Z 02007KT 15SM -SN BKN032 OVC055 M02/M09 A3016 RMK SC6SC2
                 SLP215 =
2018-01-21 14:41 METAR CYUL 211441Z 02006KT 15SM -SN OVC033 M02/M08 A3016 RMK SC8 SLP215 =
2018-01-21 14:00 METAR CYUL 211400Z 03003KT 15SM BKN035 OVC055 M02/M09 A3013 RMK SC5SC3 SLP208 =

Support USWX by starting your Amazon purchase here.